sensor_id;sensor_type;location;lat;lon;timestamp;P1;durP1;ratioP1;P2;durP2;ratioP2
18336;SDS011;9294;51.106;7.028;2022-12-31T00:00:39;1.63;;;1.52;;
18336;SDS011;9294;51.106;7.028;2022-12-31T00:03:06;1.30;;;1.30;;
18336;SDS011;9294;51.106;7.028;2022-12-31T00:05:34;1.55;;;1.45;;
18336;SDS011;9294;51.106;7.028;2022-12-31T00:08:02;1.63;;;1.33;;
18336;SDS011;9294;51.106;7.028;2022-12-31T00:10:30;1.40;;;1.35;;
18336;SDS011;9294;51.106;7.028;2022-12-31T00:12:58;1.33;;;1.33;;
18336;SDS011;9294;51.106;7.028;2022-12-31T00:15:24;1.63;;;1.50;;
18336;SDS011;9294;51.106;7.028;2022-12-31T00:17:51;1.45;;;1.40;;
18336;SDS011;9294;51.106;7.028;2022-12-31T00:20:18;1.60;;;1.60;;
18336;SDS011;9294;51.106;7.028;2022-12-31T00:22:45;1.27;;;1.27;;
18336;SDS011;9294;51.106;7.028;2022-12-31T00:25:12;1.80;;;1.70;;
18336;SDS011;9294;51.106;7.028;2022-12-31T00:27:40;1.30;;;1.30;;
18336;SDS011;9294;51.106;7.028;2022-12-31T00:30:08;1.50;;;1.40;;
18336;SDS011;9294;51.106;7.028;2022-12-31T00:32:35;1.63;;;1.52;;
18336;SDS011;9294;51.106;7.028;2022-12-31T00:35:02;1.15;;;1.15;;
18336;SDS011;9294;51.106;7.028;2022-12-31T00:37:29;1.30;;;1.30;;
18336;SDS011;9294;51.106;7.028;2022-12-31T00:39:56;1.23;;;1.15;;
18336;SDS011;9294;51.106;7.028;2022-12-31T00:42:23;1.70;;;1.70;;
18336;SDS011;9294;51.106;7.028;2022-12-31T00:44:51;1.20;;;1.20;;
18336;SDS011;9294;51.106;7.028;2022-12-31T00:47:17;1.40;;;1.40;;
18336;SDS011;9294;51.106;7.028;2022-12-31T00:49:44;1.67;;;1.58;;
18336;SDS011;9294;51.106;7.028;2022-12-31T00:52:11;1.58;;;1.40;;
18336;SDS011;9294;51.106;7.028;2022-12-31T00:54:39;1.30;;;1.30;;
18336;SDS011;9294;51.106;7.028;2022-12-31T00:57:06;1.23;;;1.23;;
18336;SDS011;9294;51.106;7.028;2022-12-31T00:59:33;1.30;;;1.30;;
18336;SDS011;9294;51.106;7.028;2022-12-31T01:02:01;1.70;;;1.60;;
18336;SDS011;9294;51.106;7.028;2022-12-31T01:04:28;1.88;;;1.77;;
18336;SDS011;9294;51.106;7.028;2022-12-31T01:06:54;1.50;;;1.40;;
18336;SDS011;9294;51.106;7.028;2022-12-31T01:09:21;1.85;;;1.50;;
18336;SDS011;9294;51.106;7.028;2022-12-31T01:11:48;2.67;;;1.50;;
18336;SDS011;9294;51.106;7.028;2022-12-31T01:14:16;1.60;;;1.50;;
18336;SDS011;9294;51.106;7.028;2022-12-31T01:16:45;1.13;;;1.13;;
18336;SDS011;9294;51.106;7.028;2022-12-31T01:19:14;1.20;;;1.20;;
18336;SDS011;9294;51.106;7.028;2022-12-31T01:21:43;0.90;;;0.90;;
18336;SDS011;9294;51.106;7.028;2022-12-31T01:24:11;1.20;;;1.20;;
18336;SDS011;9294;51.106;7.028;2022-12-31T01:26:38;1.27;;;1.27;;
18336;SDS011;9294;51.106;7.028;2022-12-31T01:29:05;1.35;;;1.35;;
18336;SDS011;9294;51.106;7.028;2022-12-31T01:31:33;1.40;;;1.40;;
18336;SDS011;9294;51.106;7.028;2022-12-31T01:34:00;1.20;;;1.13;;
18336;SDS011;9294;51.106;7.028;2022-12-31T01:36:29;1.10;;;1.10;;
18336;SDS011;9294;51.106;7.028;2022-12-31T01:38:57;1.10;;;1.10;;
18336;SDS011;9294;51.106;7.028;2022-12-31T01:41:25;0.90;;;0.90;;
18336;SDS011;9294;51.106;7.028;2022-12-31T01:43:54;1.05;;;1.05;;
18336;SDS011;9294;51.106;7.028;2022-12-31T01:46:24;1.10;;;1.10;;
18336;SDS011;9294;51.106;7.028;2022-12-31T01:48:54;1.40;;;1.40;;
18336;SDS011;9294;51.106;7.028;2022-12-31T01:51:24;1.00;;;1.00;;
18336;SDS011;9294;51.106;7.028;2022-12-31T01:53:54;1.20;;;1.20;;
18336;SDS011;9294;51.106;7.028;2022-12-31T01:56:21;0.82;;;0.82;;
18336;SDS011;9294;51.106;7.028;2022-12-31T01:58:50;1.00;;;1.00;;
18336;SDS011;9294;51.106;7.028;2022-12-31T02:01:19;1.20;;;1.20;;
18336;SDS011;9294;51.106;7.028;2022-12-31T02:03:49;1.13;;;1.13;;
18336;SDS011;9294;51.106;7.028;2022-12-31T02:06:17;1.15;;;0.90;;
18336;SDS011;9294;51.106;7.028;2022-12-31T02:08:46;1.02;;;1.02;;
18336;SDS011;9294;51.106;7.028;2022-12-31T02:11:22;1.02;;;1.02;;
18336;SDS011;9294;51.106;7.028;2022-12-31T02:13:51;0.95;;;0.95;;
18336;SDS011;9294;51.106;7.028;2022-12-31T02:16:21;1.13;;;1.13;;
18336;SDS011;9294;51.106;7.028;2022-12-31T02:18:56;0.98;;;0.98;;
18336;SDS011;9294;51.106;7.028;2022-12-31T02:21:33;1.38;;;1.38;;
18336;SDS011;9294;51.106;7.028;2022-12-31T02:24:24;1.10;;;1.10;;
18336;SDS011;9294;51.106;7.028;2022-12-31T02:27:28;0.90;;;0.90;;
18336;SDS011;9294;51.106;7.028;2022-12-31T02:30:13;1.10;;;1.10;;
18336;SDS011;9294;51.106;7.028;2022-12-31T02:32:47;0.82;;;0.82;;
18336;SDS011;9294;51.106;7.028;2022-12-31T02:35:21;1.10;;;1.10;;
18336;SDS011;9294;51.106;7.028;2022-12-31T02:37:52;0.90;;;0.90;;
18336;SDS011;9294;51.106;7.028;2022-12-31T02:40:24;1.15;;;1.15;;
18336;SDS011;9294;51.106;7.028;2022-12-31T02:42:51;0.90;;;0.90;;
18336;SDS011;9294;51.106;7.028;2022-12-31T02:45:21;0.90;;;0.90;;
18336;SDS011;9294;51.106;7.028;2022-12-31T02:47:56;1.05;;;1.05;;
18336;SDS011;9294;51.106;7.028;2022-12-31T02:50:42;1.05;;;1.05;;
18336;SDS011;9294;51.106;7.028;2022-12-31T02:53:23;0.80;;;0.80;;
18336;SDS011;9294;51.106;7.028;2022-12-31T02:56:09;0.77;;;0.77;;
18336;SDS011;9294;51.106;7.028;2022-12-31T02:58:46;0.95;;;0.95;;
18336;SDS011;9294;51.106;7.028;2022-12-31T03:01:43;0.90;;;0.90;;
18336;SDS011;9294;51.106;7.028;2022-12-31T03:04:33;0.93;;;0.93;;
18336;SDS011;9294;51.106;7.028;2022-12-31T03:07:01;0.90;;;0.90;;
18336;SDS011;9294;51.106;7.028;2022-12-31T03:09:29;0.82;;;0.82;;
18336;SDS011;9294;51.106;7.028;2022-12-31T03:11:56;1.05;;;1.05;;
18336;SDS011;9294;51.106;7.028;2022-12-31T03:14:41;0.90;;;0.90;;
18336;SDS011;9294;51.106;7.028;2022-12-31T03:17:09;1.10;;;1.10;;
18336;SDS011;9294;51.106;7.028;2022-12-31T03:19:36;0.75;;;0.75;;
18336;SDS011;9294;51.106;7.028;2022-12-31T03:22:21;0.90;;;0.90;;
18336;SDS011;9294;51.106;7.028;2022-12-31T03:24:54;0.95;;;0.95;;
18336;SDS011;9294;51.106;7.028;2022-12-31T03:27:40;0.80;;;0.80;;
18336;SDS011;9294;51.106;7.028;2022-12-31T03:30:08;0.70;;;0.70;;
18336;SDS011;9294;51.106;7.028;2022-12-31T03:32:37;0.90;;;0.90;;
18336;SDS011;9294;51.106;7.028;2022-12-31T03:35:04;0.80;;;0.80;;
18336;SDS011;9294;51.106;7.028;2022-12-31T03:37:32;0.90;;;0.90;;
18336;SDS011;9294;51.106;7.028;2022-12-31T03:39:58;1.00;;;1.00;;
18336;SDS011;9294;51.106;7.028;2022-12-31T03:42:25;1.00;;;1.00;;
18336;SDS011;9294;51.106;7.028;2022-12-31T03:44:52;0.75;;;0.75;;
18336;SDS011;9294;51.106;7.028;2022-12-31T03:47:19;1.08;;;1.08;;
18336;SDS011;9294;51.106;7.028;2022-12-31T03:49:47;0.70;;;0.70;;
18336;SDS011;9294;51.106;7.028;2022-12-31T03:52:14;0.90;;;0.90;;
18336;SDS011;9294;51.106;7.028;2022-12-31T03:54:40;0.90;;;0.90;;
18336;SDS011;9294;51.106;7.028;2022-12-31T03:57:07;0.70;;;0.70;;
18336;SDS011;9294;51.106;7.028;2022-12-31T03:59:34;0.70;;;0.70;;
18336;SDS011;9294;51.106;7.028;2022-12-31T04:02:00;0.80;;;0.80;;
18336;SDS011;9294;51.106;7.028;2022-12-31T04:04:28;0.73;;;0.73;;
18336;SDS011;9294;51.106;7.028;2022-12-31T04:06:56;0.80;;;0.80;;
18336;SDS011;9294;51.106;7.028;2022-12-31T04:09:22;0.70;;;0.70;;
18336;SDS011;9294;51.106;7.028;2022-12-31T04:11:49;0.70;;;0.70;;
18336;SDS011;9294;51.106;7.028;2022-12-31T04:14:16;0.70;;;0.70;;
18336;SDS011;9294;51.106;7.028;2022-12-31T04:16:43;0.60;;;0.60;;
18336;SDS011;9294;51.106;7.028;2022-12-31T04:19:10;0.95;;;0.95;;
18336;SDS011;9294;51.106;7.028;2022-12-31T04:21:37;0.77;;;0.77;;
18336;SDS011;9294;51.106;7.028;2022-12-31T04:24:05;0.75;;;0.75;;
18336;SDS011;9294;51.106;7.028;2022-12-31T04:26:33;0.80;;;0.80;;
18336;SDS011;9294;51.106;7.028;2022-12-31T04:29:00;0.75;;;0.75;;
18336;SDS011;9294;51.106;7.028;2022-12-31T04:31:26;0.60;;;0.60;;
18336;SDS011;9294;51.106;7.028;2022-12-31T04:33:53;0.52;;;0.52;;
18336;SDS011;9294;51.106;7.028;2022-12-31T04:36:20;0.63;;;0.63;;
18336;SDS011;9294;51.106;7.028;2022-12-31T04:38:47;0.70;;;0.70;;
18336;SDS011;9294;51.106;7.028;2022-12-31T04:41:15;0.80;;;0.80;;
18336;SDS011;9294;51.106;7.028;2022-12-31T04:43:42;0.68;;;0.68;;
18336;SDS011;9294;51.106;7.028;2022-12-31T04:46:10;0.85;;;0.85;;
18336;SDS011;9294;51.106;7.028;2022-12-31T04:48:37;0.57;;;0.57;;
18336;SDS011;9294;51.106;7.028;2022-12-31T04:51:04;0.70;;;0.70;;
18336;SDS011;9294;51.106;7.028;2022-12-31T04:53:31;0.90;;;0.90;;
18336;SDS011;9294;51.106;7.028;2022-12-31T04:55:58;0.68;;;0.68;;
18336;SDS011;9294;51.106;7.028;2022-12-31T04:58:26;0.70;;;0.70;;
18336;SDS011;9294;51.106;7.028;2022-12-31T05:00:53;0.70;;;0.70;;
18336;SDS011;9294;51.106;7.028;2022-12-31T05:03:21;0.60;;;0.60;;
18336;SDS011;9294;51.106;7.028;2022-12-31T05:05:49;0.95;;;0.95;;
18336;SDS011;9294;51.106;7.028;2022-12-31T05:08:16;0.70;;;0.70;;
18336;SDS011;9294;51.106;7.028;2022-12-31T05:10:44;0.70;;;0.70;;
18336;SDS011;9294;51.106;7.028;2022-12-31T05:13:12;0.70;;;0.70;;
18336;SDS011;9294;51.106;7.028;2022-12-31T05:15:41;0.80;;;0.80;;
18336;SDS011;9294;51.106;7.028;2022-12-31T05:18:07;0.73;;;0.73;;
18336;SDS011;9294;51.106;7.028;2022-12-31T05:20:34;0.70;;;0.70;;
18336;SDS011;9294;51.106;7.028;2022-12-31T05:23:01;0.60;;;0.60;;
18336;SDS011;9294;51.106;7.028;2022-12-31T05:25:27;0.60;;;0.60;;
18336;SDS011;9294;51.106;7.028;2022-12-31T05:27:54;0.70;;;0.70;;
18336;SDS011;9294;51.106;7.028;2022-12-31T05:30:21;0.68;;;0.68;;
18336;SDS011;9294;51.106;7.028;2022-12-31T05:32:50;0.50;;;0.50;;
18336;SDS011;9294;51.106;7.028;2022-12-31T05:35:16;0.80;;;0.80;;
18336;SDS011;9294;51.106;7.028;2022-12-31T05:37:43;0.60;;;0.60;;
18336;SDS011;9294;51.106;7.028;2022-12-31T05:40:10;0.70;;;0.70;;
18336;SDS011;9294;51.106;7.028;2022-12-31T05:42:37;0.70;;;0.70;;
18336;SDS011;9294;51.106;7.028;2022-12-31T05:45:04;0.70;;;0.70;;
18336;SDS011;9294;51.106;7.028;2022-12-31T05:47:31;0.65;;;0.65;;
18336;SDS011;9294;51.106;7.028;2022-12-31T05:49:59;0.68;;;0.68;;
18336;SDS011;9294;51.106;7.028;2022-12-31T05:52:26;0.68;;;0.68;;
18336;SDS011;9294;51.106;7.028;2022-12-31T05:54:53;0.90;;;0.90;;
18336;SDS011;9294;51.106;7.028;2022-12-31T05:57:19;0.82;;;0.60;;
18336;SDS011;9294;51.106;7.028;2022-12-31T05:59:46;0.60;;;0.60;;
18336;SDS011;9294;51.106;7.028;2022-12-31T06:02:13;0.50;;;0.50;;
18336;SDS011;9294;51.106;7.028;2022-12-31T06:04:40;0.52;;;0.52;;
18336;SDS011;9294;51.106;7.028;2022-12-31T06:07:08;0.60;;;0.60;;
18336;SDS011;9294;51.106;7.028;2022-12-31T06:09:35;0.60;;;0.60;;
18336;SDS011;9294;51.106;7.028;2022-12-31T06:12:01;0.60;;;0.60;;
18336;SDS011;9294;51.106;7.028;2022-12-31T06:14:29;0.77;;;0.77;;
18336;SDS011;9294;51.106;7.028;2022-12-31T06:16:55;0.65;;;0.65;;
18336;SDS011;9294;51.106;7.028;2022-12-31T06:19:22;0.70;;;0.70;;
18336;SDS011;9294;51.106;7.028;2022-12-31T06:21:49;0.52;;;0.52;;
18336;SDS011;9294;51.106;7.028;2022-12-31T06:24:17;0.50;;;0.50;;
18336;SDS011;9294;51.106;7.028;2022-12-31T06:26:44;0.52;;;0.52;;
18336;SDS011;9294;51.106;7.028;2022-12-31T06:29:11;0.60;;;0.60;;
18336;SDS011;9294;51.106;7.028;2022-12-31T06:31:37;0.50;;;0.50;;
18336;SDS011;9294;51.106;7.028;2022-12-31T06:34:04;0.80;;;0.80;;
18336;SDS011;9294;51.106;7.028;2022-12-31T06:36:31;0.60;;;0.60;;
18336;SDS011;9294;51.106;7.028;2022-12-31T06:38:58;0.60;;;0.60;;
18336;SDS011;9294;51.106;7.028;2022-12-31T06:41:26;0.55;;;0.55;;
18336;SDS011;9294;51.106;7.028;2022-12-31T06:43:53;0.70;;;0.70;;
18336;SDS011;9294;51.106;7.028;2022-12-31T06:46:19;0.60;;;0.60;;
18336;SDS011;9294;51.106;7.028;2022-12-31T06:48:46;0.50;;;0.50;;
18336;SDS011;9294;51.106;7.028;2022-12-31T06:51:14;0.68;;;0.68;;
18336;SDS011;9294;51.106;7.028;2022-12-31T06:53:42;0.40;;;0.40;;
18336;SDS011;9294;51.106;7.028;2022-12-31T06:56:12;4.10;;;1.15;;
18336;SDS011;9294;51.106;7.028;2022-12-31T06:58:42;3.80;;;0.98;;
18336;SDS011;9294;51.106;7.028;2022-12-31T07:01:14;3.33;;;0.68;;
18336;SDS011;9294;51.106;7.028;2022-12-31T07:03:54;1.65;;;0.73;;
18336;SDS011;9294;51.106;7.028;2022-12-31T07:06:26;0.63;;;0.50;;
18336;SDS011;9294;51.106;7.028;2022-12-31T07:08:59;0.75;;;0.60;;
18336;SDS011;9294;51.106;7.028;2022-12-31T07:11:34;1.70;;;0.77;;
18336;SDS011;9294;51.106;7.028;2022-12-31T07:14:13;8.20;;;1.67;;
18336;SDS011;9294;51.106;7.028;2022-12-31T07:16:53;10.13;;;0.80;;
18336;SDS011;9294;51.106;7.028;2022-12-31T07:19:30;3.15;;;0.82;;
18336;SDS011;9294;51.106;7.028;2022-12-31T07:22:06;2.88;;;1.05;;
18336;SDS011;9294;51.106;7.028;2022-12-31T07:24:39;1.13;;;0.82;;
18336;SDS011;9294;51.106;7.028;2022-12-31T07:27:09;2.50;;;0.80;;
18336;SDS011;9294;51.106;7.028;2022-12-31T07:29:48;1.35;;;1.10;;
18336;SDS011;9294;51.106;7.028;2022-12-31T07:32:29;3.35;;;1.33;;
18336;SDS011;9294;51.106;7.028;2022-12-31T07:35:08;1.85;;;1.58;;
18336;SDS011;9294;51.106;7.028;2022-12-31T07:37:41;1.90;;;1.00;;
18336;SDS011;9294;51.106;7.028;2022-12-31T07:40:15;3.78;;;1.23;;
18336;SDS011;9294;51.106;7.028;2022-12-31T07:42:51;1.10;;;1.00;;
18336;SDS011;9294;51.106;7.028;2022-12-31T07:45:30;2.03;;;1.23;;
18336;SDS011;9294;51.106;7.028;2022-12-31T07:48:03;4.47;;;1.10;;
18336;SDS011;9294;51.106;7.028;2022-12-31T07:50:36;2.55;;;1.38;;
18336;SDS011;9294;51.106;7.028;2022-12-31T07:53:04;1.35;;;1.27;;
18336;SDS011;9294;51.106;7.028;2022-12-31T07:55:30;1.30;;;1.10;;
18336;SDS011;9294;51.106;7.028;2022-12-31T07:58:00;5.38;;;1.98;;
18336;SDS011;9294;51.106;7.028;2022-12-31T08:00:35;14.57;;;5.25;;
18336;SDS011;9294;51.106;7.028;2022-12-31T08:03:04;47.67;;;11.38;;
18336;SDS011;9294;51.106;7.028;2022-12-31T08:05:42;26.35;;;10.05;;
18336;SDS011;9294;51.106;7.028;2022-12-31T08:08:17;19.27;;;7.40;;
18336;SDS011;9294;51.106;7.028;2022-12-31T08:10:56;18.80;;;8.27;;
18336;SDS011;9294;51.106;7.028;2022-12-31T08:13:29;15.18;;;6.78;;
18336;SDS011;9294;51.106;7.028;2022-12-31T08:15:58;23.33;;;9.27;;
18336;SDS011;9294;51.106;7.028;2022-12-31T08:18:26;16.90;;;7.55;;
18336;SDS011;9294;51.106;7.028;2022-12-31T08:20:55;16.42;;;10.15;;
18336;SDS011;9294;51.106;7.028;2022-12-31T08:23:30;17.15;;;8.02;;
18336;SDS011;9294;51.106;7.028;2022-12-31T08:26:06;18.88;;;8.50;;
18336;SDS011;9294;51.106;7.028;2022-12-31T08:28:55;14.77;;;5.20;;
18336;SDS011;9294;51.106;7.028;2022-12-31T08:31:34;13.13;;;6.00;;
18336;SDS011;9294;51.106;7.028;2022-12-31T08:34:07;14.43;;;6.10;;
18336;SDS011;9294;51.106;7.028;2022-12-31T08:36:44;16.27;;;7.28;;
18336;SDS011;9294;51.106;7.028;2022-12-31T08:39:20;25.38;;;7.60;;
18336;SDS011;9294;51.106;7.028;2022-12-31T08:41:55;11.90;;;6.25;;
18336;SDS011;9294;51.106;7.028;2022-12-31T08:44:26;14.70;;;7.22;;
18336;SDS011;9294;51.106;7.028;2022-12-31T08:47:04;12.27;;;6.35;;
18336;SDS011;9294;51.106;7.028;2022-12-31T08:49:40;14.55;;;6.50;;
18336;SDS011;9294;51.106;7.028;2022-12-31T08:52:12;21.73;;;6.65;;
18336;SDS011;9294;51.106;7.028;2022-12-31T08:54:45;13.73;;;5.03;;
18336;SDS011;9294;51.106;7.028;2022-12-31T08:57:13;8.63;;;4.45;;
18336;SDS011;9294;51.106;7.028;2022-12-31T08:59:49;11.60;;;5.65;;
18336;SDS011;9294;51.106;7.028;2022-12-31T09:02:43;12.00;;;4.40;;
18336;SDS011;9294;51.106;7.028;2022-12-31T09:05:21;11.60;;;5.90;;
18336;SDS011;9294;51.106;7.028;2022-12-31T09:07:55;12.52;;;6.75;;
18336;SDS011;9294;51.106;7.028;2022-12-31T09:10:38;10.43;;;5.03;;
18336;SDS011;9294;51.106;7.028;2022-12-31T09:13:11;20.00;;;5.15;;
18336;SDS011;9294;51.106;7.028;2022-12-31T09:15:47;12.35;;;5.03;;
18336;SDS011;9294;51.106;7.028;2022-12-31T09:18:21;12.13;;;5.55;;
18336;SDS011;9294;51.106;7.028;2022-12-31T09:20:49;12.18;;;5.18;;
18336;SDS011;9294;51.106;7.028;2022-12-31T09:23:16;10.13;;;4.80;;
18336;SDS011;9294;51.106;7.028;2022-12-31T09:25:45;9.98;;;4.85;;
18336;SDS011;9294;51.106;7.028;2022-12-31T09:28:22;10.50;;;4.97;;
18336;SDS011;9294;51.106;7.028;2022-12-31T09:31:02;13.70;;;5.60;;
18336;SDS011;9294;51.106;7.028;2022-12-31T09:33:38;11.50;;;4.45;;
18336;SDS011;9294;51.106;7.028;2022-12-31T09:36:11;8.40;;;5.18;;
18336;SDS011;9294;51.106;7.028;2022-12-31T09:38:41;12.20;;;5.18;;
18336;SDS011;9294;51.106;7.028;2022-12-31T09:41:21;11.73;;;4.80;;
18336;SDS011;9294;51.106;7.028;2022-12-31T09:53:09;8.50;;;5.15;;
18336;SDS011;9294;51.106;7.028;2022-12-31T09:55:51;7.47;;;4.05;;
18336;SDS011;9294;51.106;7.028;2022-12-31T09:58:25;8.85;;;4.10;;
18336;SDS011;9294;51.106;7.028;2022-12-31T10:00:58;10.52;;;5.10;;
18336;SDS011;9294;51.106;7.028;2022-12-31T10:03:56;7.78;;;3.90;;
18336;SDS011;9294;51.106;7.028;2022-12-31T10:06:33;8.40;;;3.75;;
18336;SDS011;9294;51.106;7.028;2022-12-31T10:09:12;7.32;;;4.45;;
18336;SDS011;9294;51.106;7.028;2022-12-31T10:12:01;9.95;;;4.75;;
18336;SDS011;9294;51.106;7.028;2022-12-31T10:14:41;7.35;;;4.05;;
18336;SDS011;9294;51.106;7.028;2022-12-31T10:17:21;6.70;;;4.25;;
18336;SDS011;9294;51.106;7.028;2022-12-31T10:20:15;10.10;;;3.88;;
18336;SDS011;9294;51.106;7.028;2022-12-31T10:22:57;8.27;;;4.28;;
18336;SDS011;9294;51.106;7.028;2022-12-31T10:25:38;8.93;;;3.80;;
18336;SDS011;9294;51.106;7.028;2022-12-31T10:28:22;6.47;;;3.80;;
18336;SDS011;9294;51.106;7.028;2022-12-31T10:30:59;7.85;;;3.70;;
18336;SDS011;9294;51.106;7.028;2022-12-31T10:33:41;5.03;;;3.55;;
18336;SDS011;9294;51.106;7.028;2022-12-31T10:36:14;10.77;;;3.45;;
18336;SDS011;9294;51.106;7.028;2022-12-31T10:38:51;10.95;;;4.10;;
18336;SDS011;9294;51.106;7.028;2022-12-31T10:47:36;9.25;;;3.67;;
18336;SDS011;9294;51.106;7.028;2022-12-31T10:50:43;10.88;;;3.95;;
18336;SDS011;9294;51.106;7.028;2022-12-31T10:53:32;10.15;;;4.05;;
18336;SDS011;9294;51.106;7.028;2022-12-31T10:59:17;10.68;;;4.03;;
18336;SDS011;9294;51.106;7.028;2022-12-31T11:02:12;16.17;;;5.60;;
18336;SDS011;9294;51.106;7.028;2022-12-31T11:05:04;19.67;;;7.13;;
18336;SDS011;9294;51.106;7.028;2022-12-31T11:08:01;25.65;;;12.52;;
18336;SDS011;9294;51.106;7.028;2022-12-31T11:16:53;34.47;;;22.08;;
18336;SDS011;9294;51.106;7.028;2022-12-31T11:19:30;45.85;;;23.58;;
18336;SDS011;9294;51.106;7.028;2022-12-31T11:25:15;49.70;;;28.27;;
18336;SDS011;9294;51.106;7.028;2022-12-31T11:27:54;53.90;;;35.45;;
18336;SDS011;9294;51.106;7.028;2022-12-31T11:30:42;50.80;;;36.05;;
18336;SDS011;9294;51.106;7.028;2022-12-31T11:33:27;45.17;;;34.65;;
18336;SDS011;9294;51.106;7.028;2022-12-31T11:36:07;45.80;;;37.67;;
18336;SDS011;9294;51.106;7.028;2022-12-31T11:38:44;50.97;;;33.60;;
18336;SDS011;9294;51.106;7.028;2022-12-31T11:41:18;50.40;;;33.53;;
18336;SDS011;9294;51.106;7.028;2022-12-31T11:43:52;47.72;;;33.33;;
18336;SDS011;9294;51.106;7.028;2022-12-31T11:49:42;46.17;;;28.30;;
18336;SDS011;9294;51.106;7.028;2022-12-31T11:55:22;43.47;;;27.55;;
18336;SDS011;9294;51.106;7.028;2022-12-31T11:58:01;41.28;;;26.63;;
18336;SDS011;9294;51.106;7.028;2022-12-31T12:00:37;40.40;;;26.85;;
18336;SDS011;9294;51.106;7.028;2022-12-31T12:03:10;37.42;;;24.02;;
18336;SDS011;9294;51.106;7.028;2022-12-31T12:05:37;33.10;;;22.83;;
18336;SDS011;9294;51.106;7.028;2022-12-31T12:08:05;32.97;;;23.13;;
18336;SDS011;9294;51.106;7.028;2022-12-31T12:10:34;34.88;;;23.27;;
18336;SDS011;9294;51.106;7.028;2022-12-31T12:13:09;33.90;;;23.23;;
18336;SDS011;9294;51.106;7.028;2022-12-31T12:15:39;29.48;;;21.70;;
18336;SDS011;9294;51.106;7.028;2022-12-31T12:18:17;31.63;;;21.13;;
18336;SDS011;9294;51.106;7.028;2022-12-31T12:20:51;30.55;;;20.13;;
18336;SDS011;9294;51.106;7.028;2022-12-31T12:23:25;30.33;;;19.90;;
18336;SDS011;9294;51.106;7.028;2022-12-31T12:25:52;30.23;;;20.75;;
18336;SDS011;9294;51.106;7.028;2022-12-31T12:28:20;27.27;;;18.48;;
18336;SDS011;9294;51.106;7.028;2022-12-31T12:30:52;29.98;;;17.88;;
18336;SDS011;9294;51.106;7.028;2022-12-31T12:33:22;28.23;;;16.75;;
18336;SDS011;9294;51.106;7.028;2022-12-31T12:35:49;31.30;;;18.55;;
18336;SDS011;9294;51.106;7.028;2022-12-31T12:38:17;28.60;;;16.60;;
18336;SDS011;9294;51.106;7.028;2022-12-31T12:40:51;22.52;;;15.38;;
18336;SDS011;9294;51.106;7.028;2022-12-31T12:43:20;22.80;;;14.02;;
18336;SDS011;9294;51.106;7.028;2022-12-31T12:45:48;20.83;;;14.32;;
18336;SDS011;9294;51.106;7.028;2022-12-31T12:48:16;25.98;;;14.68;;
18336;SDS011;9294;51.106;7.028;2022-12-31T12:50:48;24.05;;;15.82;;
18336;SDS011;9294;51.106;7.028;2022-12-31T12:53:18;22.33;;;13.95;;
18336;SDS011;9294;51.106;7.028;2022-12-31T12:56:05;20.10;;;12.55;;
18336;SDS011;9294;51.106;7.028;2022-12-31T12:58:42;17.30;;;12.02;;
18336;SDS011;9294;51.106;7.028;2022-12-31T13:01:21;23.00;;;12.15;;
18336;SDS011;9294;51.106;7.028;2022-12-31T13:04:01;16.90;;;11.32;;
18336;SDS011;9294;51.106;7.028;2022-12-31T13:06:57;20.25;;;11.25;;
18336;SDS011;9294;51.106;7.028;2022-12-31T13:09:35;14.80;;;10.23;;
18336;SDS011;9294;51.106;7.028;2022-12-31T13:12:16;17.88;;;11.27;;
18336;SDS011;9294;51.106;7.028;2022-12-31T13:14:51;17.10;;;10.27;;
18336;SDS011;9294;51.106;7.028;2022-12-31T13:17:28;15.02;;;10.40;;
18336;SDS011;9294;51.106;7.028;2022-12-31T13:20:04;16.45;;;10.00;;
18336;SDS011;9294;51.106;7.028;2022-12-31T13:22:39;14.00;;;9.65;;
18336;SDS011;9294;51.106;7.028;2022-12-31T13:25:16;14.30;;;9.00;;
18336;SDS011;9294;51.106;7.028;2022-12-31T13:27:49;16.65;;;9.07;;
18336;SDS011;9294;51.106;7.028;2022-12-31T13:30:18;13.57;;;9.30;;
18336;SDS011;9294;51.106;7.028;2022-12-31T13:32:46;13.88;;;9.00;;
18336;SDS011;9294;51.106;7.028;2022-12-31T13:35:18;13.52;;;8.23;;
18336;SDS011;9294;51.106;7.028;2022-12-31T13:37:51;13.60;;;7.82;;
18336;SDS011;9294;51.106;7.028;2022-12-31T13:40:26;14.85;;;8.65;;
18336;SDS011;9294;51.106;7.028;2022-12-31T13:42:58;14.95;;;8.20;;
18336;SDS011;9294;51.106;7.028;2022-12-31T13:45:29;10.70;;;7.38;;
18336;SDS011;9294;51.106;7.028;2022-12-31T13:48:02;15.05;;;8.32;;
18336;SDS011;9294;51.106;7.028;2022-12-31T13:50:32;12.73;;;7.35;;
18336;SDS011;9294;51.106;7.028;2022-12-31T13:53:06;9.80;;;6.30;;
18336;SDS011;9294;51.106;7.028;2022-12-31T13:55:41;13.57;;;7.20;;
18336;SDS011;9294;51.106;7.028;2022-12-31T13:58:17;14.20;;;6.60;;
18336;SDS011;9294;51.106;7.028;2022-12-31T14:00:49;12.73;;;7.07;;
18336;SDS011;9294;51.106;7.028;2022-12-31T14:03:37;15.20;;;7.07;;
18336;SDS011;9294;51.106;7.028;2022-12-31T14:06:13;12.13;;;7.47;;
18336;SDS011;9294;51.106;7.028;2022-12-31T14:08:49;13.05;;;7.25;;
18336;SDS011;9294;51.106;7.028;2022-12-31T14:11:18;9.20;;;6.15;;
18336;SDS011;9294;51.106;7.028;2022-12-31T14:13:55;12.90;;;7.13;;
18336;SDS011;9294;51.106;7.028;2022-12-31T14:16:33;11.15;;;6.38;;
18336;SDS011;9294;51.106;7.028;2022-12-31T14:19:09;17.23;;;6.72;;
18336;SDS011;9294;51.106;7.028;2022-12-31T14:21:42;12.98;;;6.32;;
18336;SDS011;9294;51.106;7.028;2022-12-31T14:24:19;9.20;;;6.13;;
18336;SDS011;9294;51.106;7.028;2022-12-31T14:26:58;11.32;;;5.70;;
18336;SDS011;9294;51.106;7.028;2022-12-31T14:29:30;7.05;;;5.70;;
18336;SDS011;9294;51.106;7.028;2022-12-31T14:32:08;8.60;;;6.63;;
18336;SDS011;9294;51.106;7.028;2022-12-31T14:34:48;8.45;;;6.78;;
18336;SDS011;9294;51.106;7.028;2022-12-31T14:37:22;7.85;;;6.28;;
18336;SDS011;9294;51.106;7.028;2022-12-31T14:39:59;9.63;;;6.10;;
18336;SDS011;9294;51.106;7.028;2022-12-31T14:42:42;14.15;;;7.28;;
18336;SDS011;9294;51.106;7.028;2022-12-31T14:45:22;10.07;;;6.53;;
18336;SDS011;9294;51.106;7.028;2022-12-31T14:47:54;7.57;;;5.55;;
18336;SDS011;9294;51.106;7.028;2022-12-31T14:50:26;10.85;;;5.95;;
18336;SDS011;9294;51.106;7.028;2022-12-31T14:52:55;7.53;;;6.53;;
18336;SDS011;9294;51.106;7.028;2022-12-31T14:55:34;6.70;;;5.38;;
18336;SDS011;9294;51.106;7.028;2022-12-31T14:58:03;10.52;;;6.20;;
18336;SDS011;9294;51.106;7.028;2022-12-31T15:00:52;7.90;;;5.90;;
18336;SDS011;9294;51.106;7.028;2022-12-31T15:03:24;7.75;;;6.28;;
18336;SDS011;9294;51.106;7.028;2022-12-31T15:06:00;6.30;;;5.38;;
18336;SDS011;9294;51.106;7.028;2022-12-31T15:08:42;7.95;;;6.53;;
18336;SDS011;9294;51.106;7.028;2022-12-31T15:11:30;6.43;;;5.82;;
18336;SDS011;9294;51.106;7.028;2022-12-31T15:17:07;7.25;;;5.65;;
18336;SDS011;9294;51.106;7.028;2022-12-31T15:22:36;6.20;;;5.60;;
18336;SDS011;9294;51.106;7.028;2022-12-31T15:25:17;6.43;;;5.78;;
18336;SDS011;9294;51.106;7.028;2022-12-31T15:27:50;8.77;;;6.13;;
18336;SDS011;9294;51.106;7.028;2022-12-31T15:30:29;5.60;;;5.10;;
18336;SDS011;9294;51.106;7.028;2022-12-31T15:33:05;5.70;;;5.07;;
18336;SDS011;9294;51.106;7.028;2022-12-31T15:35:45;6.75;;;4.93;;
18336;SDS011;9294;51.106;7.028;2022-12-31T15:38:25;6.03;;;5.43;;
18336;SDS011;9294;51.106;7.028;2022-12-31T15:40:56;11.18;;;5.88;;
18336;SDS011;9294;51.106;7.028;2022-12-31T15:43:26;6.47;;;4.65;;
18336;SDS011;9294;51.106;7.028;2022-12-31T15:46:00;6.03;;;4.97;;
18336;SDS011;9294;51.106;7.028;2022-12-31T15:48:35;8.35;;;4.97;;
18336;SDS011;9294;51.106;7.028;2022-12-31T15:51:06;6.15;;;4.70;;
18336;SDS011;9294;51.106;7.028;2022-12-31T15:53:41;4.47;;;4.07;;
18336;SDS011;9294;51.106;7.028;2022-12-31T15:56:11;5.72;;;4.47;;
18336;SDS011;9294;51.106;7.028;2022-12-31T15:58:44;6.32;;;4.63;;
18336;SDS011;9294;51.106;7.028;2022-12-31T16:01:13;5.78;;;4.10;;
18336;SDS011;9294;51.106;7.028;2022-12-31T16:03:41;4.80;;;4.13;;
18336;SDS011;9294;51.106;7.028;2022-12-31T16:06:12;5.57;;;3.50;;
18336;SDS011;9294;51.106;7.028;2022-12-31T16:08:42;5.05;;;3.50;;